Time;durP1;ratioP1;P1;durP2;ratioP2;P2;SDS_P1;SDS_P2;PMS_P1;PMS_P2;Temp;Humidity;BMP_temperature;BMP_pressure;BME280_temperature;BME280_humidity;BME280_pressure;Samples;Min_cycle;Max_cycle;Signal;HPM_P1;HPM_P2
2022/10/04 00:00:07;;;;;;;9.85;5.30;;;;;;;;;;4991014;28;20061;-67
2022/10/04 00:02:34;;;;;;;12.88;5.05;;;;;;;;;;4991812;28;20058;-68
2022/10/04 00:05:07;;;;;;;7.95;5.55;;;;;;;;;;4982087;28;20038;-67
2022/10/04 00:07:55;;;;;;;12.70;5.65;;;;;;;;;;4982054;28;20450;-68
2022/10/04 00:10:32;;;;;;;7.63;4.40;;;;;;;;;;4990107;28;20057;-67
2022/10/04 00:13:14;;;;;;;6.32;4.28;;;;;;;;;;4996918;28;20057;-67
2022/10/04 00:15:40;;;;;;;13.75;4.75;;;;;;;;;;4983093;28;20057;-67
2022/10/04 00:18:27;;;;;;;8.35;4.10;;;;;;;;;;4981198;28;20070;-67
2022/10/04 00:20:53;;;;;;;10.70;4.45;;;;;;;;;;4989612;28;20535;-68
2022/10/04 00:23:24;;;;;;;7.95;4.55;;;;;;;;;;4989230;28;20052;-67
2022/10/04 00:26:00;;;;;;;5.03;3.87;;;;;;;;;;4981584;28;20065;-67
2022/10/04 00:28:25;;;;;;;6.85;4.22;;;;;;;;;;4981817;28;20038;-68
2022/10/04 00:31:13;;;;;;;6.30;3.95;;;;;;;;;;4981925;28;20065;-67
2022/10/04 00:33:44;;;;;;;7.28;4.00;;;;;;;;;;4993693;28;20056;-66
2022/10/04 00:36:22;;;;;;;6.07;3.92;;;;;;;;;;4987405;28;20057;-66
2022/10/04 00:39:08;;;;;;;5.95;3.88;;;;;;;;;;4982437;28;20045;-67
2022/10/04 00:41:45;;;;;;;7.88;3.40;;;;;;;;;;4956178;28;20050;-66
2022/10/04 00:44:36;;;;;;;8.18;3.83;;;;;;;;;;4983377;28;20061;-68
2022/10/04 00:47:11;;;;;;;8.45;3.95;;;;;;;;;;4983461;28;20050;-68
2022/10/04 00:49:40;;;;;;;10.65;4.53;;;;;;;;;;4981027;28;20128;-68
2022/10/04 00:52:14;;;;;;;8.18;4.03;;;;;;;;;;4984355;28;20057;-68
2022/10/04 00:54:45;;;;;;;5.85;3.92;;;;;;;;;;4981154;28;20423;-68
2022/10/04 00:57:20;;;;;;;7.07;3.63;;;;;;;;;;4984848;28;20046;-68
2022/10/04 00:59:49;;;;;;;5.93;3.50;;;;;;;;;;4980524;28;20038;-67
2022/10/04 01:02:20;;;;;;;8.70;4.32;;;;;;;;;;4980552;28;20050;-67
2022/10/04 01:05:03;;;;;;;8.65;4.57;;;;;;;;;;4980715;28;20042;-67
2022/10/04 01:07:40;;;;;;;8.88;4.60;;;;;;;;;;4992153;28;20972;-68
2022/10/04 01:10:27;;;;;;;8.60;4.18;;;;;;;;;;4989875;28;20499;-68
2022/10/04 01:13:03;;;;;;;6.40;4.25;;;;;;;;;;4970434;28;20981;-67
2022/10/04 01:15:51;;;;;;;6.25;4.00;;;;;;;;;;4978789;28;20133;-68
2022/10/04 01:18:20;;;;;;;7.75;4.25;;;;;;;;;;4980154;28;20112;-67
2022/10/04 01:20:59;;;;;;;10.27;3.60;;;;;;;;;;4980131;28;20069;-67
2022/10/04 01:23:40;;;;;;;9.25;3.47;;;;;;;;;;4980762;28;20422;-67
2022/10/04 01:26:29;;;;;;;10.02;3.20;;;;;;;;;;4980354;28;20057;-68
2022/10/04 01:29:09;;;;;;;10.63;3.10;;;;;;;;;;4993153;28;20046;-67
2022/10/04 01:31:41;;;;;;;6.65;3.22;;;;;;;;;;4984758;28;20085;-67
2022/10/04 01:34:07;;;;;;;;;;;;;;;;;;4990271;28;20108;-67
2022/10/04 01:36:34;;;;;;;6.05;3.08;;;;;;;;;;4985099;28;19922;-67
2022/10/04 01:38:59;;;;;;;6.18;3.42;;;;;;;;;;4991650;28;20076;-67
2022/10/04 01:42:00;;;;;;;11.45;4.28;;;;;;;;;;4984771;28;20153;-67
2022/10/04 01:44:35;;;;;;;9.60;4.93;;;;;;;;;;4982991;28;20176;-67
2022/10/04 01:47:07;;;;;;;13.15;4.93;;;;;;;;;;4996481;28;20057;-67
2022/10/04 01:49:37;;;;;;;13.30;4.28;;;;;;;;;;4992418;28;20058;-70
2022/10/04 01:52:06;;;;;;;8.57;3.92;;;;;;;;;;4998013;28;20042;-70
2022/10/04 01:54:35;;;;;;;4.35;3.25;;;;;;;;;;4984524;28;20061;-67
2022/10/04 01:57:14;;;;;;;5.18;3.80;;;;;;;;;;4984956;28;20054;-67
2022/10/04 01:59:49;;;;;;;10.82;4.30;;;;;;;;;;4984850;28;20042;-68
2022/10/04 02:02:25;;;;;;;6.28;3.85;;;;;;;;;;4986533;28;20051;-68
2022/10/04 02:04:54;;;;;;;82.72;5.75;;;;;;;;;;4984536;28;20054;-67
2022/10/04 02:07:21;;;;;;;8.15;3.72;;;;;;;;;;4988180;28;20072;-67
2022/10/04 02:09:53;;;;;;;7.35;3.97;;;;;;;;;;4984542;28;20038;-67
2022/10/04 02:12:18;;;;;;;8.10;4.30;;;;;;;;;;4994895;28;20053;-67
2022/10/04 02:14:53;;;;;;;5.32;3.55;;;;;;;;;;4984577;28;20415;-66
2022/10/04 02:17:27;;;;;;;14.40;3.63;;;;;;;;;;4985932;28;20133;-66
2022/10/04 02:19:53;;;;;;;5.60;3.38;;;;;;;;;;4991810;28;20069;-67
2022/10/04 02:22:19;;;;;;;6.07;3.45;;;;;;;;;;4983291;28;20077;-67
2022/10/04 02:24:48;;;;;;;4.95;3.45;;;;;;;;;;5000022;28;20054;-66
2022/10/04 02:27:14;;;;;;;3.50;3.20;;;;;;;;;;4983761;28;20140;-69
2022/10/04 02:29:40;;;;;;;7.65;3.70;;;;;;;;;;4984232;28;20077;-69
2022/10/04 02:34:53;;;;;;;8.50;4.00;;;;;;;;;;4993702;28;20100;-69
2022/10/04 02:37:22;;;;;;;8.20;3.63;;;;;;;;;;4988094;28;20057;-67
2022/10/04 02:40:12;;;;;;;5.05;3.83;;;;;;;;;;4983599;28;20038;-67
2022/10/04 02:43:03;;;;;;;4.53;3.42;;;;;;;;;;4967578;28;20053;-67
2022/10/04 02:45:43;;;;;;;6.32;3.85;;;;;;;;;;4992306;28;20050;-67
2022/10/04 02:48:24;;;;;;;9.00;4.00;;;;;;;;;;4982951;28;20497;-67
2022/10/04 02:50:54;;;;;;;3.78;3.38;;;;;;;;;;4983724;28;20107;-67
2022/10/04 02:53:36;;;;;;;7.57;3.92;;;;;;;;;;4983372;28;20411;-70
2022/10/04 02:56:02;;;;;;;;;;;;;;;;;;4993897;28;20072;-68
2022/10/04 02:58:29;;;;;;;8.65;3.72;;;;;;;;;;5002265;28;19960;-68
2022/10/04 03:00:59;;;;;;;6.18;4.10;;;;;;;;;;4983636;28;20069;-68
2022/10/04 03:03:30;;;;;;;9.30;3.72;;;;;;;;;;4983500;28;20050;-68
2022/10/04 03:06:11;;;;;;;6.30;3.72;;;;;;;;;;4983283;28;20499;-68
2022/10/04 03:08:44;;;;;;;6.70;4.35;;;;;;;;;;4975441;28;20046;-70
2022/10/04 03:11:12;;;;;;;6.15;3.72;;;;;;;;;;4983011;28;20074;-68
2022/10/04 03:13:40;;;;;;;7.70;3.58;;;;;;;;;;4985477;28;20054;-68
2022/10/04 03:16:07;;;;;;;5.78;3.20;;;;;;;;;;4988054;28;20050;-68
2022/10/04 03:18:34;;;;;;;4.80;3.15;;;;;;;;;;4982859;28;20050;-68
2022/10/04 03:21:04;;;;;;;8.77;4.13;;;;;;;;;;4991103;28;20121;-66
2022/10/04 03:23:32;;;;;;;10.05;4.15;;;;;;;;;;4985169;28;20108;-66
2022/10/04 03:26:03;;;;;;;6.93;4.55;;;;;;;;;;4983798;28;20045;-70
2022/10/04 03:28:28;;;;;;;6.90;4.25;;;;;;;;;;4985589;28;20438;-66
2022/10/04 03:30:56;;;;;;;8.80;5.15;;;;;;;;;;4990101;28;20053;-67
2022/10/04 03:33:24;;;;;;;5.25;4.50;;;;;;;;;;4986028;28;20046;-66
2022/10/04 03:35:59;;;;;;;7.68;4.93;;;;;;;;;;4982587;28;20073;-66
2022/10/04 03:38:26;;;;;;;10.35;4.68;;;;;;;;;;4984016;28;20496;-66
2022/10/04 03:40:55;;;;;;;6.88;3.97;;;;;;;;;;4990205;28;20050;-66
2022/10/04 03:43:24;;;;;;;10.05;5.13;;;;;;;;;;4994271;28;20073;-66
2022/10/04 03:45:51;;;;;;;9.70;4.95;;;;;;;;;;4996514;28;20045;-66
2022/10/04 03:48:29;;;;;;;9.27;4.47;;;;;;;;;;4986386;28;20080;-68
2022/10/04 03:50:55;;;;;;;13.98;4.82;;;;;;;;;;4987346;28;20042;-68
2022/10/04 03:53:55;;;;;;;13.63;4.60;;;;;;;;;;4983289;28;20041;-68
2022/10/04 03:56:35;;;;;;;8.57;4.00;;;;;;;;;;4998753;28;20534;-68
2022/10/04 03:59:05;;;;;;;9.95;4.55;;;;;;;;;;5001677;28;20064;-68
2022/10/04 04:01:38;;;;;;;8.73;5.22;;;;;;;;;;4993458;28;20073;-68
2022/10/04 04:04:22;;;;;;;16.02;4.85;;;;;;;;;;4987918;28;20116;-71
2022/10/04 04:07:06;;;;;;;10.05;4.80;;;;;;;;;;4982295;28;20515;-71
2022/10/04 04:09:45;;;;;;;4.40;3.90;;;;;;;;;;4986624;28;20054;-72
2022/10/04 04:12:42;;;;;;;6.93;4.43;;;;;;;;;;4982356;28;20046;-71
2022/10/04 04:15:11;;;;;;;12.85;4.38;;;;;;;;;;4984047;28;20057;-72
2022/10/04 04:17:40;;;;;;;7.63;4.35;;;;;;;;;;4984200;28;20046;-72
2022/10/04 04:20:26;;;;;;;6.82;4.13;;;;;;;;;;4969077;28;20045;-73
2022/10/04 04:23:02;;;;;;;9.43;4.65;;;;;;;;;;4982387;28;20205;-71
2022/10/04 04:25:32;;;;;;;12.23;4.68;;;;;;;;;;4990408;28;20045;-72
2022/10/04 04:28:11;;;;;;;10.88;4.50;;;;;;;;;;4984824;28;20045;-71
2022/10/04 04:30:42;;;;;;;10.45;4.47;;;;;;;;;;4955582;28;20133;-72
2022/10/04 04:33:17;;;;;;;9.33;4.70;;;;;;;;;;4982274;28;20054;-71
2022/10/04 04:35:42;;;;;;;8.27;4.32;;;;;;;;;;4993343;28;20422;-74
2022/10/04 04:38:23;;;;;;;5.78;4.35;;;;;;;;;;4986640;28;20042;-71
2022/10/04 04:40:49;;;;;;;5.28;4.40;;;;;;;;;;4982573;28;20046;-72
2022/10/04 04:43:19;;;;;;;8.90;4.97;;;;;;;;;;4981590;28;20129;-71
2022/10/04 04:45:48;;;;;;;7.15;4.70;;;;;;;;;;4985113;28;20490;-70
2022/10/04 04:48:18;;;;;;;13.65;5.18;;;;;;;;;;4974126;28;20127;-70
2022/10/04 04:50:55;;;;;;;13.05;5.05;;;;;;;;;;4981951;28;20074;-71
2022/10/04 04:53:26;;;;;;;10.00;5.22;;;;;;;;;;4982352;28;20212;-71
2022/10/04 04:55:56;;;;;;;10.90;5.22;;;;;;;;;;4985022;28;20533;-69
2022/10/04 04:58:34;;;;;;;10.93;5.35;;;;;;;;;;4988265;28;20081;-71
2022/10/04 05:01:04;;;;;;;7.50;4.75;;;;;;;;;;4984937;28;20514;-73
2022/10/04 05:03:30;;;;;;;10.25;5.20;;;;;;;;;;4981959;28;20056;-74
2022/10/04 05:05:57;;;;;;;9.48;4.85;;;;;;;;;;4983971;28;20046;-71
2022/10/04 05:08:28;;;;;;;9.30;5.07;;;;;;;;;;4988306;28;20065;-67
2022/10/04 05:10:56;;;;;;;7.78;5.10;;;;;;;;;;4985078;28;20038;-70
2022/10/04 05:13:28;;;;;;;8.80;5.40;;;;;;;;;;4981292;28;20085;-70
2022/10/04 05:15:56;;;;;;;11.70;5.32;;;;;;;;;;4982457;28;20108;-70
2022/10/04 05:18:29;;;;;;;15.07;6.70;;;;;;;;;;4984784;28;20060;-71
2022/10/04 05:20:58;;;;;;;8.43;5.45;;;;;;;;;;4965635;28;20132;-70
2022/10/04 05:23:24;;;;;;;9.38;5.32;;;;;;;;;;4979659;28;20042;-70
2022/10/04 05:25:50;;;;;;;9.30;5.70;;;;;;;;;;4984705;28;20044;-70
2022/10/04 05:28:17;;;;;;;7.90;5.65;;;;;;;;;;4987286;28;20065;-70
2022/10/04 05:30:47;;;;;;;8.80;5.97;;;;;;;;;;4988123;28;20042;-70
2022/10/04 05:33:21;;;;;;;6.38;5.68;;;;;;;;;;4997307;28;20061;-69
2022/10/04 05:35:53;;;;;;;12.80;6.85;;;;;;;;;;4984075;28;20050;-70
2022/10/04 05:38:37;;;;;;;11.13;6.13;;;;;;;;;;4984449;28;20152;-70
2022/10/04 05:41:07;;;;;;;13.75;6.63;;;;;;;;;;4984578;28;20552;-70
2022/10/04 05:43:51;;;;;;;11.13;6.68;;;;;;;;;;4991188;28;20045;-70
2022/10/04 05:46:17;;;;;;;9.13;6.47;;;;;;;;;;4985006;28;20073;-70
2022/10/04 05:48:44;;;;;;;9.77;5.78;;;;;;;;;;4981007;28;20983;-71
2022/10/04 05:51:26;;;;;;;7.60;6.30;;;;;;;;;;4980025;28;20050;-71
2022/10/04 05:53:54;;;;;;;12.70;7.00;;;;;;;;;;4992174;28;20165;-71
2022/10/04 05:56:50;;;;;;;9.40;6.95;;;;;;;;;;4983998;28;20065;-71
2022/10/04 05:59:25;;;;;;;9.88;6.85;;;;;;;;;;4987036;28;20062;-71
2022/10/04 06:02:24;;;;;;;11.82;7.50;;;;;;;;;;4987067;28;20046;-71
2022/10/04 06:05:14;;;;;;;13.68;7.38;;;;;;;;;;4975423;28;20699;-70
2022/10/04 06:08:24;;;;;;;12.75;7.97;;;;;;;;;;4980855;28;20452;-71
2022/10/04 06:10:59;;;;;;;11.90;7.63;;;;;;;;;;4966197;28;20066;-71
2022/10/04 06:13:53;;;;;;;9.93;6.88;;;;;;;;;;4976538;28;20066;-71
2022/10/04 06:16:29;;;;;;;11.77;7.25;;;;;;;;;;4978859;28;20054;-70
2022/10/04 06:19:32;;;;;;;15.68;6.40;;;;;;;;;;4981519;28;20514;-71
2022/10/04 06:22:00;;;;;;;10.50;6.50;;;;;;;;;;4981728;28;20046;-70
2022/10/04 06:24:36;;;;;;;11.18;5.88;;;;;;;;;;4982770;28;20076;-71
2022/10/04 06:27:09;;;;;;;6.88;5.70;;;;;;;;;;5003563;28;20049;-70
2022/10/04 06:29:43;;;;;;;6.57;5.20;;;;;;;;;;4986141;28;20105;-70
2022/10/04 06:32:18;;;;;;;7.68;5.35;;;;;;;;;;4986148;28;20410;-71
2022/10/04 06:35:05;;;;;;;7.60;4.50;;;;;;;;;;4983974;28;20058;-70
2022/10/04 06:37:59;;;;;;;4.97;3.95;;;;;;;;;;4991770;28;20046;-70
2022/10/04 06:40:30;;;;;;;4.82;4.32;;;;;;;;;;4988972;28;20072;-69
2022/10/04 06:43:17;;;;;;;5.32;4.53;;;;;;;;;;4973472;28;20042;-70
2022/10/04 06:46:10;;;;;;;4.82;3.50;;;;;;;;;;4984457;28;20053;-69
2022/10/04 06:48:55;;;;;;;3.45;3.15;;;;;;;;;;4975612;28;20066;-69
2022/10/04 06:51:36;;;;;;;4.65;3.20;;;;;;;;;;4987678;28;20523;-72
2022/10/04 06:54:31;;;;;;;6.20;2.85;;;;;;;;;;4989061;28;20459;-71
2022/10/04 06:57:05;;;;;;;2.80;2.20;;;;;;;;;;4983114;28;20487;-73
2022/10/04 06:59:49;;;;;;;3.17;2.72;;;;;;;;;;5001950;28;20057;-68
2022/10/04 07:02:27;;;;;;;2.50;2.30;;;;;;;;;;4985038;28;20081;-71
2022/10/04 07:04:53;;;;;;;3.72;2.63;;;;;;;;;;4985939;28;20045;-68
2022/10/04 07:07:34;;;;;;;2.58;2.35;;;;;;;;;;4982992;28;20050;-71
2022/10/04 07:10:29;;;;;;;5.20;3.10;;;;;;;;;;4983921;28;20041;-70
2022/10/04 07:13:12;;;;;;;5.35;2.85;;;;;;;;;;4990317;28;20074;-70
2022/10/04 07:15:43;;;;;;;4.75;3.28;;;;;;;;;;4985357;28;20498;-72
2022/10/04 07:18:18;;;;;;;6.90;3.00;;;;;;;;;;4984021;28;20326;-70
2022/10/04 07:20:46;;;;;;;3.13;2.80;;;;;;;;;;4993832;28;20053;-68
2022/10/04 07:23:20;;;;;;;7.82;3.28;;;;;;;;;;4995941;28;20050;-72
2022/10/04 07:25:53;;;;;;;3.22;2.80;;;;;;;;;;4983304;28;20050;-69
2022/10/04 07:31:27;;;;;;;3.17;2.88;;;;;;;;;;4988449;28;20057;-71
2022/10/04 07:34:15;;;;;;;3.58;2.97;;;;;;;;;;4990457;28;20061;-70
2022/10/04 07:36:46;;;;;;;4.25;2.72;;;;;;;;;;4966872;28;20145;-71
2022/10/04 07:39:15;;;;;;;2.63;2.33;;;;;;;;;;4986344;28;20086;-68
2022/10/04 07:41:56;;;;;;;3.88;2.70;;;;;;;;;;4986213;28;20560;-69
2022/10/04 07:44:26;;;;;;;8.98;2.55;;;;;;;;;;4994258;28;20085;-69
2022/10/04 07:47:00;;;;;;;4.53;2.83;;;;;;;;;;4989896;28;20140;-70
2022/10/04 07:49:26;;;;;;;3.25;2.90;;;;;;;;;;4985679;28;20499;-68
2022/10/04 07:52:06;;;;;;;3.10;2.40;;;;;;;;;;4982016;28;20045;-68
2022/10/04 07:54:57;;;;;;;6.60;2.60;;;;;;;;;;4971637;28;20054;-69
2022/10/04 07:57:45;;;;;;;3.03;2.63;;;;;;;;;;4982214;28;20601;-71
2022/10/04 08:00:16;;;;;;;5.03;3.50;;;;;;;;;;4982203;28;20050;-68
2022/10/04 08:03:19;;;;;;;3.28;2.97;;;;;;;;;;4988686;28;20137;-68
2022/10/04 08:06:04;;;;;;;4.47;3.13;;;;;;;;;;4995477;28;20056;-72
2022/10/04 08:08:29;;;;;;;4.47;2.95;;;;;;;;;;4993231;28;20068;-70
2022/10/04 08:11:23;;;;;;;4.20;2.92;;;;;;;;;;4990991;28;20949;-69
2022/10/04 08:14:16;;;;;;;4.00;2.80;;;;;;;;;;4987973;28;20070;-70
2022/10/04 08:17:23;;;;;;;4.65;2.60;;;;;;;;;;4975654;28;20153;-72
2022/10/04 08:19:56;;;;;;;3.10;2.65;;;;;;;;;;4885222;29;20054;-69
2022/10/04 08:22:33;;;;;;;6.28;2.70;;;;;;;;;;4972129;28;20053;-70
2022/10/04 08:25:05;;;;;;;3.72;2.80;;;;;;;;;;4987195;28;20513;-70
2022/10/04 08:29:41;;;;;;;3.55;2.63;;;;;;;;;;4989968;28;20108;-72
2022/10/04 08:30:38;;;;;;;5.25;3.00;;;;;;;;;;4983671;28;20045;-70
2022/10/04 08:33:35;;;;;;;4.72;2.80;;;;;;;;;;4985439;28;20050;-70
2022/10/04 08:36:22;;;;;;;4.95;3.08;;;;;;;;;;4987518;28;20042;-70
2022/10/04 08:38:56;;;;;;;4.85;2.90;;;;;;;;;;4976374;28;20077;-71
2022/10/04 08:41:30;;;;;;;5.80;3.10;;;;;;;;;;4985419;28;20046;-73
2022/10/04 08:44:05;;;;;;;7.60;2.95;;;;;;;;;;4981574;28;20088;-72
2022/10/04 08:46:51;;;;;;;6.38;2.75;;;;;;;;;;4975285;28;20050;-72
2022/10/04 08:49:45;;;;;;;3.92;2.92;;;;;;;;;;4989741;28;20313;-71
2022/10/04 08:52:44;;;;;;;6.00;3.30;;;;;;;;;;4985139;28;20081;-69
2022/10/04 08:55:43;;;;;;;6.60;2.97;;;;;;;;;;4986661;28;20462;-71
2022/10/04 08:59:06;;;;;;;7.93;3.53;;;;;;;;;;4956836;28;20149;-71
2022/10/04 09:01:38;;;;;;;4.40;3.33;;;;;;;;;;4885801;29;20052;-69
2022/10/04 09:04:44;;;;;;;6.72;3.35;;;;;;;;;;4888776;29;20044;-70
2022/10/04 09:07:50;;;;;;;5.40;3.38;;;;;;;;;;4971973;28;20053;-71
2022/10/04 09:10:35;;;;;;;4.95;3.72;;;;;;;;;;4979994;28;20054;-71
2022/10/04 09:13:09;;;;;;;3.85;3.30;;;;;;;;;;4989196;28;20081;-70
2022/10/04 09:15:51;;;;;;;7.32;3.40;;;;;;;;;;4981527;28;20125;-72
2022/10/04 09:18:20;;;;;;;9.60;4.18;;;;;;;;;;4980742;28;20050;-71
2022/10/04 09:21:15;;;;;;;9.75;4.10;;;;;;;;;;4981199;28;20058;-70
2022/10/04 09:23:46;;;;;;;8.85;4.32;;;;;;;;;;4983475;28;20050;-69
2022/10/04 09:26:27;;;;;;;5.15;3.72;;;;;;;;;;4980196;28;20058;-70
2022/10/04 09:29:11;;;;;;;7.20;3.45;;;;;;;;;;4987721;28;20116;-71
2022/10/04 09:31:49;;;;;;;3.70;2.40;;;;;;;;;;4984310;28;20049;-70
2022/10/04 09:34:56;;;;;;;4.13;2.72;;;;;;;;;;4985469;28;20574;-69
2022/10/04 09:37:33;;;;;;;3.20;2.90;;;;;;;;;;4882970;29;20052;-70
2022/10/04 09:40:34;;;;;;;5.65;2.45;;;;;;;;;;4970796;28;20052;-69
2022/10/04 09:43:17;;;;;;;3.90;2.20;;;;;;;;;;4958359;28;20367;-70
2022/10/04 09:46:08;;;;;;;5.80;3.00;;;;;;;;;;4983649;28;20046;-70
2022/10/04 09:48:43;;;;;;;4.05;2.60;;;;;;;;;;4947853;28;20054;-69
2022/10/04 09:51:12;;;;;;;4.32;2.60;;;;;;;;;;4983099;28;20104;-71
2022/10/04 09:53:57;;;;;;;8.05;3.03;;;;;;;;;;4990276;28;20093;-71
2022/10/04 09:57:05;;;;;;;8.10;3.13;;;;;;;;;;4988073;28;20077;-69
2022/10/04 10:00:05;;;;;;;3.70;2.42;;;;;;;;;;4940469;28;20057;-69
2022/10/04 10:03:19;;;;;;;4.45;2.47;;;;;;;;;;4967111;28;20049;-68
2022/10/04 10:06:12;;;;;;;6.00;2.30;;;;;;;;;;4993862;23;20047;-71
2022/10/04 10:09:17;;;;;;;4.70;2.17;;;;;;;;;;4920526;28;20499;-71
2022/10/04 10:15:47;;;;;;;4.32;2.40;;;;;;;;;;4894685;28;20052;-74
2022/10/04 10:18:33;;;;;;;4.45;2.13;;;;;;;;;;4963353;28;20042;-73
2022/10/04 10:21:35;;;;;;;4.32;2.17;;;;;;;;;;4964793;28;20495;-72
2022/10/04 10:24:14;;;;;;;6.00;1.90;;;;;;;;;;4951608;28;20105;-71
2022/10/04 10:26:45;;;;;;;8.10;2.13;;;;;;;;;;4963945;28;20059;-73
2022/10/04 10:29:22;;;;;;;5.43;1.83;;;;;;;;;;4965116;28;20503;-71
2022/10/04 10:32:17;;;;;;;6.30;2.08;;;;;;;;;;4947064;28;20579;-70
2022/10/04 10:35:20;;;;;;;2.58;1.80;;;;;;;;;;4915762;28;20078;-70
2022/10/04 10:38:05;;;;;;;8.07;2.33;;;;;;;;;;4963291;28;20155;-70
2022/10/04 10:40:42;;;;;;;3.65;2.17;;;;;;;;;;4964622;28;20117;-74
2022/10/04 10:43:26;;;;;;;4.75;2.05;;;;;;;;;;4964769;28;20039;-71
2022/10/04 10:45:55;;;;;;;4.03;2.30;;;;;;;;;;4964573;28;20042;-72
2022/10/04 10:48:59;;;;;;;6.15;2.17;;;;;;;;;;4963238;28;20062;-70
2022/10/04 10:51:48;;;;;;;5.93;2.33;;;;;;;;;;4895274;28;20047;-72
2022/10/04 10:54:32;;;;;;;7.78;2.40;;;;;;;;;;4945946;28;20055;-70
2022/10/04 10:57:35;;;;;;;3.15;2.10;;;;;;;;;;4963773;28;20135;-70
2022/10/04 11:00:20;;;;;;;6.13;2.63;;;;;;;;;;4962449;28;20054;-74
2022/10/04 11:03:27;;;;;;;6.43;2.92;;;;;;;;;;4964154;28;20070;-72
2022/10/04 11:06:18;;;;;;;4.07;2.35;;;;;;;;;;4964255;28;20058;-73
2022/10/04 11:09:21;;;;;;;6.43;2.47;;;;;;;;;;4937175;28;20141;-72
2022/10/04 11:12:15;;;;;;;2.75;1.70;;;;;;;;;;4946094;28;20043;-71
2022/10/04 11:15:02;;;;;;;6.30;2.40;;;;;;;;;;4946422;28;20058;-70
2022/10/04 11:17:56;;;;;;;4.00;1.92;;;;;;;;;;4964033;28;20047;-69
2022/10/04 11:20:36;;;;;;;5.32;2.08;;;;;;;;;;4962921;28;20050;-71
2022/10/04 11:23:31;;;;;;;4.32;2.10;;;;;;;;;;4964978;28;20053;-70
2022/10/04 11:26:42;;;;;;;4.18;2.50;;;;;;;;;;4965607;28;20046;-70
2022/10/04 11:29:11;;;;;;;2.80;2.10;;;;;;;;;;4918454;28;20089;-72
2022/10/04 11:31:58;;;;;;;5.63;2.78;;;;;;;;;;4964010;28;20403;-74
2022/10/04 11:34:29;;;;;;;4.00;2.20;;;;;;;;;;4963191;28;20061;-73
2022/10/04 11:37:08;;;;;;;2.40;1.85;;;;;;;;;;4963146;28;20550;-74
2022/10/04 11:40:16;;;;;;;4.57;2.25;;;;;;;;;;4963657;28;20047;-72
2022/10/04 11:42:48;;;;;;;5.90;2.25;;;;;;;;;;4929383;28;20538;-72
2022/10/04 11:45:16;;;;;;;3.30;1.80;;;;;;;;;;4945515;28;20051;-71
2022/10/04 11:47:54;;;;;;;4.30;2.10;;;;;;;;;;4960289;28;20070;-72
2022/10/04 11:50:43;;;;;;;3.50;2.08;;;;;;;;;;4963843;28;20101;-74
2022/10/04 11:53:33;;;;;;;3.63;1.67;;;;;;;;;;4953423;28;20496;-72
2022/10/04 11:56:29;;;;;;;6.22;2.22;;;;;;;;;;4962220;28;20411;-72
2022/10/04 11:59:03;;;;;;;4.18;1.80;;;;;;;;;;4947224;28;20038;-74
2022/10/04 12:02:05;;;;;;;3.15;1.80;;;;;;;;;;4962594;28;20039;-70
2022/10/04 12:04:44;;;;;;;3.47;2.13;;;;;;;;;;4962636;28;20487;-70
2022/10/04 12:07:29;;;;;;;5.38;1.95;;;;;;;;;;4960022;28;20082;-70
2022/10/04 12:10:15;;;;;;;5.00;2.30;;;;;;;;;;4960743;28;20065;-70
2022/10/04 12:12:55;;;;;;;4.78;2.35;;;;;;;;;;4942544;28;20499;-70
2022/10/04 12:15:44;;;;;;;7.60;2.20;;;;;;;;;;4957893;28;20065;-70
2022/10/04 12:18:16;;;;;;;4.50;2.50;;;;;;;;;;4959292;28;20384;-70
2022/10/04 12:20:56;;;;;;;3.55;2.13;;;;;;;;;;4959209;28;20042;-70
2022/10/04 12:23:46;;;;;;;9.95;2.50;;;;;;;;;;4961245;28;20046;-69
2022/10/04 12:26:20;;;;;;;4.10;2.35;;;;;;;;;;4960372;28;20050;-70
2022/10/04 12:29:07;;;;;;;3.90;2.50;;;;;;;;;;4960501;28;20649;-70
2022/10/04 12:31:35;;;;;;;4.03;2.22;;;;;;;;;;4960964;28;20039;-70
2022/10/04 12:34:47;;;;;;;4.15;2.88;;;;;;;;;;4960934;28;20415;-69
2022/10/04 12:38:00;;;;;;;7.70;3.27;;;;;;;;;;4920833;28;20043;-69
2022/10/04 12:40:45;;;;;;;3.53;2.38;;;;;;;;;;4960564;28;20278;-69
2022/10/04 12:43:13;;;;;;;6.15;2.47;;;;;;;;;;4962104;28;20975;-70
2022/10/04 12:45:58;;;;;;;3.22;2.35;;;;;;;;;;4960295;28;20047;-70
2022/10/04 12:49:11;;;;;;;4.50;2.70;;;;;;;;;;4959531;28;20057;-71
2022/10/04 12:52:01;;;;;;;4.55;2.85;;;;;;;;;;4962078;28;20054;-70
2022/10/04 12:54:49;;;;;;;8.20;2.90;;;;;;;;;;4964171;28;20058;-73
2022/10/04 12:57:46;;;;;;;5.60;3.08;;;;;;;;;;4967655;28;20051;-71
2022/10/04 13:00:23;;;;;;;4.45;3.17;;;;;;;;;;4967815;28;20054;-70
2022/10/04 13:03:07;;;;;;;3.65;2.70;;;;;;;;;;4961888;28;20046;-70
2022/10/04 13:05:58;;;;;;;6.07;3.08;;;;;;;;;;4961481;28;20051;-72
2022/10/04 13:08:51;;;;;;;5.60;3.35;;;;;;;;;;4960979;28;20046;-70
2022/10/04 13:11:56;;;;;;;6.15;2.78;;;;;;;;;;4960670;28;20065;-71
2022/10/04 13:14:27;;;;;;;4.45;3.25;;;;;;;;;;4889616;28;20490;-72
2022/10/04 13:17:30;;;;;;;6.30;2.92;;;;;;;;;;4962173;28;20046;-71
2022/10/04 13:20:15;;;;;;;3.88;2.70;;;;;;;;;;4961355;28;20074;-70
2022/10/04 13:23:08;;;;;;;4.78;2.70;;;;;;;;;;4938721;28;20162;-70
2022/10/04 13:25:45;;;;;;;8.30;2.45;;;;;;;;;;4963507;28;20137;-70
2022/10/04 13:28:22;;;;;;;9.38;2.70;;;;;;;;;;4960478;28;20050;-71
2022/10/04 13:31:31;;;;;;;4.90;2.63;;;;;;;;;;4964219;28;20050;-70
2022/10/04 13:34:30;;;;;;;3.70;2.40;;;;;;;;;;4953114;28;20324;-70
2022/10/04 13:37:03;;;;;;;6.75;2.53;;;;;;;;;;4931196;28;20047;-71
2022/10/04 13:39:38;;;;;;;4.63;2.42;;;;;;;;;;4963323;28;20126;-71
2022/10/04 13:42:28;;;;;;;10.25;2.90;;;;;;;;;;4961957;28;20546;-72
2022/10/04 13:45:16;;;;;;;4.38;2.88;;;;;;;;;;4962030;28;20106;-71
2022/10/04 13:48:16;;;;;;;3.33;2.42;;;;;;;;;;4963301;28;20053;-71
2022/10/04 13:51:19;;;;;;;6.20;2.85;;;;;;;;;;4945929;28;20443;-71
2022/10/04 13:57:10;;;;;;;5.13;2.90;;;;;;;;;;4947331;28;20101;-72
2022/10/04 13:59:58;;;;;;;5.20;2.38;;;;;;;;;;4964351;28;20038;-71
2022/10/04 14:02:41;;;;;;;8.35;2.28;;;;;;;;;;4945812;28;20149;-70
2022/10/04 14:05:25;;;;;;;6.53;2.65;;;;;;;;;;4963373;28;20058;-73
2022/10/04 14:08:16;;;;;;;6.53;3.17;;;;;;;;;;4945517;28;20109;-70
2022/10/04 14:11:13;;;;;;;3.80;2.30;;;;;;;;;;4946545;28;20121;-71
2022/10/04 14:13:54;;;;;;;7.05;2.67;;;;;;;;;;4963362;28;20149;-70
2022/10/04 14:16:57;;;;;;;8.52;2.75;;;;;;;;;;4963682;28;20053;-71
2022/10/04 14:19:41;;;;;;;8.10;2.00;;;;;;;;;;4960335;28;20042;-70
2022/10/04 14:22:28;;;;;;;8.70;2.80;;;;;;;;;;4963023;28;20061;-75
2022/10/04 14:25:18;;;;;;;5.65;2.70;;;;;;;;;;4964456;28;20061;-72
2022/10/04 14:28:17;;;;;;;4.78;3.55;;;;;;;;;;4965204;28;20066;-72
2022/10/04 14:30:58;;;;;;;8.55;2.92;;;;;;;;;;4934387;28;20047;-72
2022/10/04 14:33:50;;;;;;;6.95;3.42;;;;;;;;;;4959940;28;20053;-71
2022/10/04 14:36:49;;;;;;;7.93;3.07;;;;;;;;;;4961947;28;20527;-71
2022/10/04 14:39:31;;;;;;;9.80;3.58;;;;;;;;;;4908631;28;20652;-72
2022/10/04 14:42:16;;;;;;;6.15;2.63;;;;;;;;;;4962918;28;20511;-70
2022/10/04 14:45:01;;;;;;;5.28;2.45;;;;;;;;;;4945080;28;20117;-70
2022/10/04 14:47:36;;;;;;;4.10;2.40;;;;;;;;;;4961464;28;20050;-71
2022/10/04 14:50:20;;;;;;;8.70;2.90;;;;;;;;;;4959290;28;20514;-70
2022/10/04 14:53:26;;;;;;;5.47;2.38;;;;;;;;;;4946321;28;20066;-70
2022/10/04 14:56:09;;;;;;;6.15;3.03;;;;;;;;;;4963573;28;20046;-71
2022/10/04 14:59:01;;;;;;;8.20;3.60;;;;;;;;;;4932114;28;20097;-71
2022/10/04 15:01:27;;;;;;;7.53;2.72;;;;;;;;;;4962971;28;20054;-71
2022/10/04 15:04:14;;;;;;;5.47;2.40;;;;;;;;;;4963982;28;20049;-72
2022/10/04 15:06:49;;;;;;;5.93;2.53;;;;;;;;;;4906326;28;20384;-71
2022/10/04 15:09:33;;;;;;;10.23;2.67;;;;;;;;;;4946808;28;20058;-69
2022/10/04 15:12:25;;;;;;;17.13;5.75;;;;;;;;;;4963574;28;20074;-69
2022/10/04 15:15:04;;;;;;;6.65;2.88;;;;;;;;;;4948086;28;20043;-70
2022/10/04 15:17:42;;;;;;;7.32;2.55;;;;;;;;;;4963386;28;20055;-70
2022/10/04 15:20:31;;;;;;;6.20;2.95;;;;;;;;;;4962818;28;20050;-70
2022/10/04 15:23:11;;;;;;;5.70;2.97;;;;;;;;;;4962060;28;20141;-70
2022/10/04 15:25:46;;;;;;;5.50;2.97;;;;;;;;;;4961890;28;20529;-71
2022/10/04 15:28:32;;;;;;;5.53;3.13;;;;;;;;;;4959143;28;20082;-71
2022/10/04 15:31:23;;;;;;;6.65;2.72;;;;;;;;;;4961705;28;20157;-70
2022/10/04 15:33:57;;;;;;;4.88;3.05;;;;;;;;;;4960019;28;20042;-72
2022/10/04 15:36:36;;;;;;;4.65;3.30;;;;;;;;;;4961766;28;20054;-71
2022/10/04 15:39:26;;;;;;;5.38;3.00;;;;;;;;;;4937086;28;20055;-71
2022/10/04 15:42:14;;;;;;;6.55;3.35;;;;;;;;;;4963002;28;20050;-71
2022/10/04 15:44:54;;;;;;;9.68;4.10;;;;;;;;;;4929439;28;20058;-72
2022/10/04 15:47:47;;;;;;;7.18;3.35;;;;;;;;;;4960043;28;20058;-72
2022/10/04 15:50:23;;;;;;;9.23;3.58;;;;;;;;;;4962261;28;20066;-72
2022/10/04 15:53:18;;;;;;;7.85;3.50;;;;;;;;;;4962658;28;20107;-70
2022/10/04 15:56:10;;;;;;;7.57;3.20;;;;;;;;;;4962582;28;20491;-72
2022/10/04 15:59:05;;;;;;;9.82;3.72;;;;;;;;;;4897958;28;20562;-72
2022/10/04 16:01:57;;;;;;;5.35;3.50;;;;;;;;;;4941027;28;20050;-70
2022/10/04 16:04:40;;;;;;;9.98;3.60;;;;;;;;;;4933944;28;20179;-73
2022/10/04 16:07:05;;;;;;;6.50;3.33;;;;;;;;;;4959931;28;20810;-72
2022/10/04 16:09:54;;;;;;;5.78;3.35;;;;;;;;;;4961512;28;20065;-70
2022/10/04 16:12:51;;;;;;;5.00;3.25;;;;;;;;;;4962264;28;20047;-70
2022/10/04 16:15:30;;;;;;;5.63;2.92;;;;;;;;;;4934090;28;20062;-71